True, West Virginia
Current Conditions -  °F | °C
As of 3:51 PM on Thursday 20 Nov 2014 (Local Time) from KBKW Reporting Station
Clear Clear  
Wind Chill: 31°   Ceiling: Unl
Heat Index: 39°   Visibility: 10mi
Dew Point: 16°   Wind: 13mph
Humidity: 39%   Direction: 250°WSW
Pressure: 30"   Gusts: 22mph
Location:  37.58°N, 80.93°W
Report Text: KBKW 202051Z AUTO 25011G19KT 10SM CLR 04/M09 A3000 RMK AO2 SLP176 T00391089 53005
Loading
Personal Weather Stations






























Interactive Weather Map New forecast layout! Learn more

10-Day Weather Forecast

Advertisements
Track Severe Weather on mobile